Moyie, Canada
Current Conditions -  °F | °C
As of 2:00 AM on Saturday 22 Nov 2014 (Local Time) from CYXC Reporting Station
Light Rain Light Rain  
Wind Chill: 30°   Ceiling: 800
Heat Index: 34°   Visibility: 4mi
Dew Point: 32°   Wind: 5mph
Humidity: 93%   Direction: 160°SSE
Pressure: 29.29"   Gusts: NA
Location:  49.28°N, 115.83°W
Report Text: CYXC 220900Z 16004KT 4SM -RA BR BKN008 OVC015 01/M00 A2929 RMK SF6SC2 SLP938
Loading
Personal Weather Stations






























Interactive Weather Map New forecast layout! Learn more

10-Day Weather Forecast

Advertisements
Track Severe Weather on mobile